Salida, CO

4:15 PM MDT on August 17, 2017 (GMT -0600)
Salida

Weather History for KANK - June, 2013

Change the Weather History Date:

Tuesday, June 18, 2013

  Actual Average (KGUC) Record (KGUC)
Temperature  
Mean Temperature 66 °F -  
Max Temperature 80 °F 72 °F 84 °F (2002)
Min Temperature 51 °F 37 °F 33 °F (2000)
Growing Degree Days 16 (Base 50)    
Moisture  
Dew Point 36 °F    
Average Humidity 36    
Maximum Humidity 65    
Minimum Humidity 13    
Precipitation  
Precipitation 0.00 in - - ()
Sea Level Pressure  
Sea Level Pressure 30.28 in    
Wind  
Wind Speed 8 mph (SW)    
Max Wind Speed 24 mph    
Max Gust Speed 33 mph    
Visibility 10 miles    
Events      
Averages and records for this station are not official NWS values.
T = Trace of Precipitation, MM = Missing Value Source: NWS Daily Summary

Daily Weather History Graph

Daily Weather History Graph

Search for Another Location

Airport or City:

Trip Planner

Search our weather history database for the weather conditions in past years. The results will help you decide how hot, cold, wet, or windy it might be!

Date:

Astronomy

Jun. 18, 2013 Rise Set
Actual Time 5:39 AM MDT 8:31 PM MDT
Civil Twilight 5:07 AM MDT 9:03 PM MDT
Nautical Twilight 4:27 AM MDT 9:43 PM MDT
Astronomical Twilight 3:42 AM MDT 10:28 PM MDT
Moon 3:21 PM MDT (6/18) 1:46 AM MDT (6/18)
Length of Visible Light 15h 55m
Length of Day
14h 51m
Waxing Gibbous, 71% of the Moon is Illuminated
Jun 18
Waxing Gibbous
Jun 23
Full
Jun 29
Last Quarter
Jul 8
New
Jul 15
First Quarter

Hourly Weather History & Observations

Time (MDT) Temp. Dew Point Humidity Pressure Visibility Wind Dir Wind Speed Gust Speed Precip Events Conditions
12:15 AM 59.4 °F 41.2 °F 51% 30.39 in 10.0 mi East 8.1 mph - N/A   Clear
12:35 AM 59.0 °F 41.5 °F 52% 30.40 in 10.0 mi Calm Calm - N/A   Clear
12:55 AM 58.6 °F 41.5 °F 53% 30.40 in 10.0 mi East 5.8 mph - N/A   Clear
1:15 AM 58.3 °F 41.9 °F 54% 30.40 in 10.0 mi East 5.8 mph - N/A   Clear
1:35 AM 58.3 °F 42.3 °F 55% 30.40 in 10.0 mi ENE 4.6 mph - N/A   Clear
1:55 AM 57.9 °F 42.1 °F 56% 30.40 in 10.0 mi Calm Calm - N/A   Scattered Clouds
2:15 AM 57.6 °F 41.7 °F 56% 30.40 in 10.0 mi North 5.8 mph - N/A   Mostly Cloudy
2:35 AM 55.6 °F 41.4 °F 59% 30.39 in 10.0 mi North 4.6 mph - N/A   Overcast
2:55 AM 55.2 °F 41.0 °F 59% 30.39 in 10.0 mi NW 5.8 mph - N/A   Overcast
3:15 AM 55.2 °F 40.6 °F 58% 30.40 in 10.0 mi NW 5.8 mph - N/A   Overcast
3:35 AM 55.0 °F 40.1 °F 57% 30.40 in 10.0 mi NW 3.5 mph - N/A   Overcast
3:55 AM 55.4 °F 40.1 °F 56% 30.39 in 10.0 mi NNW 4.6 mph - N/A   Overcast
4:15 AM 54.5 °F 40.1 °F 58% 30.40 in 10.0 mi Calm Calm - N/A   Overcast
4:35 AM 52.5 °F 39.7 °F 62% 30.39 in 10.0 mi NNW 5.8 mph - N/A   Scattered Clouds
4:55 AM 52.2 °F 39.9 °F 63% 30.39 in 10.0 mi NW 9.2 mph - N/A   Clear
5:15 AM 52.2 °F 40.1 °F 64% 30.39 in 10.0 mi NW 9.2 mph - N/A   Clear
5:35 AM 51.3 °F 39.7 °F 65% 30.39 in 10.0 mi NW 10.4 mph - N/A   Clear
5:55 AM 51.1 °F 39.6 °F 65% 30.40 in 10.0 mi NW 9.2 mph - N/A   Clear
6:15 AM 51.3 °F 39.7 °F 65% 30.40 in 10.0 mi West 5.8 mph - N/A   Clear
6:35 AM 51.8 °F 39.7 °F 63% 30.40 in 10.0 mi WNW 8.1 mph - N/A   Clear
6:55 AM 52.9 °F 40.1 °F 62% 30.40 in 10.0 mi WNW 8.1 mph - N/A   Clear
7:15 AM 53.2 °F 39.4 °F 59% 30.40 in 10.0 mi NW 11.5 mph - N/A   Clear
7:35 AM 54.5 °F 39.6 °F 57% 30.39 in 10.0 mi NW 8.1 mph - N/A   Clear
7:55 AM 56.3 °F 40.1 °F 55% 30.39 in 10.0 mi NNW 8.1 mph - N/A   Clear
8:15 AM 57.4 °F 40.1 °F 53% 30.39 in 10.0 mi NW 6.9 mph - N/A   Clear
8:35 AM 59.2 °F 40.8 °F 51% 30.39 in 10.0 mi North 5.8 mph - N/A   Clear
8:55 AM 61.7 °F 42.3 °F 49% 30.37 in 10.0 mi North 4.6 mph - N/A   Clear
9:15 AM 63.0 °F 42.3 °F 47% 30.37 in 10.0 mi NNE 3.5 mph - N/A   Clear
9:35 AM 66.0 °F 41.7 °F 41% 30.35 in 10.0 mi North 3.5 mph - N/A   Clear
9:55 AM 68.2 °F 40.6 °F 37% 30.35 in 10.0 mi Calm Calm - N/A   Clear
10:15 AM 71.2 °F 39.4 °F 31% 30.34 in 10.0 mi South 9.2 mph 18.4 mph N/A   Clear
10:35 AM 72.9 °F 39.7 °F 30% 30.32 in 10.0 mi SE 15.0 mph 23.0 mph N/A   Clear
10:55 AM 74.5 °F 38.5 °F 27% 30.31 in 10.0 mi South 11.5 mph 23.0 mph N/A   Clear
11:15 AM 74.8 °F 37.9 °F 26% 30.30 in 10.0 mi South 16.1 mph 24.2 mph N/A   Clear
11:35 AM 75.7 °F 37.4 °F 25% 30.29 in 10.0 mi South 11.5 mph 25.3 mph N/A   Clear
11:55 AM 77.5 °F 35.2 °F 22% 30.29 in 10.0 mi South 13.8 mph 21.9 mph N/A   Clear
12:15 PM 78.6 °F 33.3 °F 19% 30.27 in 10.0 mi South 10.4 mph 21.9 mph N/A   Scattered Clouds
12:35 PM 78.8 °F 36.1 °F 21% 30.26 in 10.0 mi SSE 12.7 mph 18.4 mph N/A   Clear
12:55 PM 78.3 °F 36.3 °F 22% 30.26 in 10.0 mi South 16.1 mph 25.3 mph N/A   Clear
1:15 PM 74.3 °F 38.1 °F 27% 30.25 in 10.0 mi South 19.6 mph 25.3 mph N/A   Scattered Clouds
1:35 PM 77.5 °F 38.3 °F 24% 30.25 in 10.0 mi SSW 17.3 mph 23.0 mph N/A   Scattered Clouds
1:55 PM 77.0 °F 32.5 °F 20% 30.24 in 10.0 mi South 12.7 mph 23.0 mph N/A   Scattered Clouds
2:15 PM 78.4 °F 36.3 °F 22% 30.23 in 10.0 mi South 18.4 mph 27.6 mph N/A   Clear
2:35 PM 78.8 °F 31.8 °F 18% 30.22 in 10.0 mi South 18.4 mph 28.8 mph N/A   Clear
2:55 PM 79.2 °F 35.2 °F 20% 30.21 in 10.0 mi South 20.7 mph 28.8 mph N/A   Clear
3:15 PM 80.2 °F 31.3 °F 17% 30.20 in 10.0 mi SSW 16.1 mph 24.2 mph N/A   Clear
3:35 PM 79.5 °F 31.6 °F 18% 30.20 in 10.0 mi South 17.3 mph 32.2 mph N/A   Clear
3:55 PM 76.5 °F 30.9 °F 19% 30.20 in 10.0 mi South 18.4 mph 26.5 mph N/A   Clear
4:15 PM 78.6 °F 23.9 °F 13% 30.18 in 10.0 mi SSW 24.2 mph 33.4 mph N/A   Clear
4:35 PM 78.6 °F 26.6 °F 15% 30.18 in 10.0 mi SSW 20.7 mph 33.4 mph N/A   Clear
4:55 PM 75.4 °F 28.2 °F 18% 30.17 in 10.0 mi SSW 20.7 mph 31.1 mph N/A   Clear
5:15 PM 78.6 °F 28.4 °F 16% 30.15 in 10.0 mi SSW 15.0 mph 28.8 mph N/A   Scattered Clouds
5:35 PM 80.6 °F 27.7 °F 14% 30.15 in 10.0 mi SW 11.5 mph 21.9 mph N/A   Scattered Clouds
5:55 PM 80.1 °F 26.4 °F 14% 30.14 in 10.0 mi SSW 10.4 mph 18.4 mph N/A   Clear
6:15 PM 79.0 °F 27.1 °F 15% 30.15 in 10.0 mi SSW 9.2 mph - N/A   Clear
6:35 PM 77.4 °F 25.5 °F 15% 30.14 in 10.0 mi SSW 17.3 mph 26.5 mph N/A   Clear
6:55 PM 75.6 °F 26.6 °F 16% 30.14 in 10.0 mi SSW 11.5 mph 20.7 mph N/A   Clear
7:15 PM 74.7 °F 27.5 °F 17% 30.15 in 10.0 mi SW 8.1 mph 16.1 mph N/A   Clear
7:35 PM 74.1 °F 28.4 °F 18% 30.15 in 10.0 mi SW 9.2 mph 16.1 mph N/A   Scattered Clouds
7:55 PM 73.9 °F 28.9 °F 19% 30.15 in 10.0 mi NW 6.9 mph - N/A   Scattered Clouds
8:15 PM 71.6 °F 27.3 °F 19% 30.17 in 10.0 mi Calm Calm - N/A   Clear
8:35 PM 70.9 °F 27.5 °F 20% 30.17 in 10.0 mi WNW 6.9 mph - N/A   Clear
8:55 PM 70.2 °F 25.9 °F 19% 30.16 in 10.0 mi WNW 6.9 mph - N/A   Clear
9:15 PM 66.4 °F 29.1 °F 25% 30.17 in 10.0 mi WSW 8.1 mph - N/A   Clear
9:35 PM 65.3 °F 30.4 °F 27% 30.18 in 10.0 mi West 8.1 mph - N/A   Clear
9:55 PM 63.3 °F 31.6 °F 31% 30.19 in 10.0 mi WSW 6.9 mph - N/A   Clear
10:15 PM 61.7 °F 31.5 °F 32% 30.20 in 10.0 mi SSW 3.5 mph - N/A   Clear
10:35 PM 63.7 °F 31.6 °F 30% 30.21 in 10.0 mi Calm Calm - N/A   Clear
10:55 PM 65.1 °F 35.4 °F 33% 30.20 in 10.0 mi SE 13.8 mph 21.9 mph N/A   Clear
11:15 PM 63.3 °F 34.5 °F 34% 30.21 in 10.0 mi South 6.9 mph - N/A   Clear
11:35 PM 62.6 °F 34.7 °F 35% 30.21 in 10.0 mi SSW 6.9 mph - N/A   Clear
11:55 PM 62.2 °F 37.9 °F 41% 30.21 in 10.0 mi SSE 5.8 mph - N/A   Clear